Terminal Aerodrome Forecast
Issued by NWS

Home | Current Version | Previous Version | Text Only | Print | Product List | Glossary On
Versions: 1 2 3 4 5 6 7 8 9 10 11 12 13
000
FTUS45 KTFX 251120
TAFHVR
TAF
KHVR 251120Z 2512/2612 VRB05KT P6SM SCT080 BKN120
     FM251800 32008KT P6SM SCT060 BKN100 PROB30 2521/2601 -SHRA
      BKN050=

USA.gov is the U.S. government's official web portal to all federal, state and local government web resources and services.